Blairstown, IA (52209)

10:35 AM CST on March 03, 2015 (GMT -0600)
South West Btown | Change Station
CLOSE
Current Station
Personal Weather Station
Location: Blairstown, IA
Elevation: 866 ft
Nearby Weather Stations
Active Advisory: Winter Weather Advisory

Elev 866 ft 41.91 °N, 92.09 °W | Updated 53 seconds ago

Fog
Fog
30.7 °F
Feels Like 22 °F
N
10.5
Wind Variable Wind from WSW
Gusts 12.0 mph

Today
High -- | Low -- °F
--% Chance of Precip.
Yesterday
High -- | Low -- °F
Precip. -- in
6:40 AM 6:00 PM
Waxing Gibbous, 96% visible
Pressure 29.66 in
Visibility 2.0 miles
Clouds Overcast 400 ft
Windchill 22 °F
Dew Point 30 °F
Humidity 95%
Rainfall 0.00 in
Snow Depth Not available.
UV 1 out of 12
Pollen .50 out of 12
Air Quality Not available.
Flu Activity Not available.
SPECI KCID 031623Z 21012KT 2SM BR OVC004 M01/M01 A2966 RMK AO2 I1001 T10111011

More Conditions Fewer Conditions

Pressure 29.66 in
Visibility 2.0 miles
Clouds Overcast 400 ft
Windchill 22 °F
Dew Point 30 °F
Humidity 95%
Rainfall 0.00 in
Snow Depth Not available.
UV 1 out of 12
Pollen .50 out of 12
Air Quality Not available.
Flu Activity Not available.
SPECI KCID 031623Z 21012KT 2SM BR OVC004 M01/M01 A2966 RMK AO2 I1001 T10111011

More Conditions Fewer Conditions

10-Day Weather Forecast

Almanac

Astronomy

Mar. 03, 2015 Rise Set
Actual Time
Civil Twilight
Nautical Twilight
Astronomical Twilight
Moon
Length of Visible Light
Length of Day
Tomorrow will be .
, % of the Moon is Illuminated

Today's Extremes

State Highs State Lows

Community

WunderPhotos

Upload Photos

1,802,164 photos uploaded!

WunderBlogs® & News

Nearby

Air Quality

  Air Quality AQ Index Pollutant
Not available.

Snow Depth

Station Depth Elevation

Earthquake Activity

City Distance Mag. Time & Date
Minimum magnitude displayed is 2.5.

Coastal Water Temperatures

Place Temperature

Nearby Weather Stations

Winter Weather Advisory
Statement as of 9:08 AM CST on March 03, 2015

... Winter Weather Advisory in effect until noon CST today...

The National Weather Service in Quad Cities has issued a Winter
Weather Advisory for mixed precipitation... which is in effect
until noon CST today.

* Timing... through noon.

* Snow accumulations... a trace.

* Ice accumulations... a trace.

* Winds... south winds 10 to 20 mph with gusts up to 25 mph.

* Temperatures... rising to around 30.

* Impacts... the lingering light snow or freezing drizzle may
result in hazardous travel this morning.

Precautionary/preparedness actions...

A Winter Weather Advisory means that periods of snow... sleet... or
freezing rain will cause travel difficulties. Be prepared for
slippery roads and limited visibilities... and be careful while
driving.